Terminal Aerodrome Forecast
Issued by NWS

Home | Current Version | Previous Version | Text Only | Print | Product List | Glossary On
Versions: 1 2 3 4 5 6 7 8 9 10 11 12 13 14 15 16 17 18 19 20
000
FTUS41 KGYX 302345
TAFAUG
TAF
KAUG 302345Z 3100/3124 19010G18KT P6SM FEW080 BKN200
     FM310600 20010KT 5SM -SHRA BR OVC030
     FM311000 24009KT 3SM -RA BR OVC015
     FM311500 01012G20KT 3SM -RA BR OVC012
     FM312100 35011KT P6SM -SHRA BKN025=

USA.gov is the U.S. government's official web portal to all federal, state and local government web resources and services.